sensor_id;sensor_type;location;lat;lon;timestamp;P1;durP1;ratioP1;P2;durP2;ratioP2
55811;SDS011;41742;52.048;6.092;2022-11-20T00:00:45;8.77;;;4.20;;
55811;SDS011;41742;52.048;6.092;2022-11-20T00:03:12;5.15;;;3.88;;
55811;SDS011;41742;52.048;6.092;2022-11-20T00:05:37;6.75;;;3.88;;
55811;SDS011;41742;52.048;6.092;2022-11-20T00:08:03;6.03;;;3.83;;
55811;SDS011;41742;52.048;6.092;2022-11-20T00:10:29;6.05;;;3.78;;
55811;SDS011;41742;52.048;6.092;2022-11-20T00:12:55;7.13;;;3.78;;
55811;SDS011;41742;52.048;6.092;2022-11-20T00:15:22;6.88;;;3.92;;
55811;SDS011;41742;52.048;6.092;2022-11-20T00:17:47;4.68;;;3.38;;
55811;SDS011;41742;52.048;6.092;2022-11-20T00:20:13;4.85;;;3.45;;
55811;SDS011;41742;52.048;6.092;2022-11-20T00:22:39;5.30;;;3.45;;
55811;SDS011;41742;52.048;6.092;2022-11-20T00:25:05;6.70;;;3.95;;
55811;SDS011;41742;52.048;6.092;2022-11-20T00:27:30;6.85;;;3.47;;
55811;SDS011;41742;52.048;6.092;2022-11-20T00:29:56;6.70;;;4.03;;
55811;SDS011;41742;52.048;6.092;2022-11-20T00:32:21;6.95;;;3.78;;
55811;SDS011;41742;52.048;6.092;2022-11-20T00:34:47;7.25;;;4.13;;
55811;SDS011;41742;52.048;6.092;2022-11-20T00:37:13;4.80;;;3.42;;
55811;SDS011;41742;52.048;6.092;2022-11-20T00:39:38;5.75;;;3.85;;
55811;SDS011;41742;52.048;6.092;2022-11-20T00:42:04;11.85;;;4.35;;
55811;SDS011;41742;52.048;6.092;2022-11-20T00:44:29;7.43;;;4.07;;
55811;SDS011;41742;52.048;6.092;2022-11-20T00:46:55;5.38;;;3.80;;
55811;SDS011;41742;52.048;6.092;2022-11-20T00:49:20;5.70;;;3.55;;
55811;SDS011;41742;52.048;6.092;2022-11-20T00:51:46;5.55;;;3.83;;
55811;SDS011;41742;52.048;6.092;2022-11-20T00:54:12;7.80;;;4.65;;
55811;SDS011;41742;52.048;6.092;2022-11-20T00:56:38;7.45;;;4.47;;
55811;SDS011;41742;52.048;6.092;2022-11-20T00:59:03;8.90;;;4.32;;
55811;SDS011;41742;52.048;6.092;2022-11-20T01:01:29;7.93;;;3.72;;
55811;SDS011;41742;52.048;6.092;2022-11-20T01:03:56;8.25;;;4.18;;
55811;SDS011;41742;52.048;6.092;2022-11-20T01:06:25;7.53;;;4.25;;
55811;SDS011;41742;52.048;6.092;2022-11-20T01:08:53;6.40;;;4.13;;
55811;SDS011;41742;52.048;6.092;2022-11-20T01:11:25;7.30;;;4.57;;
55811;SDS011;41742;52.048;6.092;2022-11-20T01:13:55;6.88;;;4.05;;
55811;SDS011;41742;52.048;6.092;2022-11-20T01:18:51;6.10;;;3.85;;
55811;SDS011;41742;52.048;6.092;2022-11-20T01:21:20;7.72;;;3.97;;
55811;SDS011;41742;52.048;6.092;2022-11-20T01:23:47;5.13;;;3.92;;
55811;SDS011;41742;52.048;6.092;2022-11-20T01:26:15;7.38;;;4.30;;
55811;SDS011;41742;52.048;6.092;2022-11-20T01:28:42;7.70;;;4.40;;
55811;SDS011;41742;52.048;6.092;2022-11-20T01:33:40;11.82;;;4.18;;
55811;SDS011;41742;52.048;6.092;2022-11-20T01:36:07;7.82;;;4.38;;
55811;SDS011;41742;52.048;6.092;2022-11-20T01:38:33;7.60;;;4.35;;
55811;SDS011;41742;52.048;6.092;2022-11-20T01:40:58;13.85;;;4.70;;
55811;SDS011;41742;52.048;6.092;2022-11-20T01:43:24;9.20;;;4.25;;
55811;SDS011;41742;52.048;6.092;2022-11-20T01:48:40;7.15;;;4.47;;
55811;SDS011;41742;52.048;6.092;2022-11-20T01:51:10;5.70;;;4.15;;
55811;SDS011;41742;52.048;6.092;2022-11-20T01:53:42;5.20;;;4.00;;
55811;SDS011;41742;52.048;6.092;2022-11-20T01:56:09;6.93;;;3.78;;
55811;SDS011;41742;52.048;6.092;2022-11-20T01:58:37;8.65;;;4.90;;
55811;SDS011;41742;52.048;6.092;2022-11-20T02:01:05;9.70;;;4.13;;
55811;SDS011;41742;52.048;6.092;2022-11-20T02:03:30;8.23;;;4.20;;
55811;SDS011;41742;52.048;6.092;2022-11-20T02:08:32;6.40;;;3.97;;
55811;SDS011;41742;52.048;6.092;2022-11-20T02:10:57;5.68;;;3.58;;
55811;SDS011;41742;52.048;6.092;2022-11-20T02:13:23;8.02;;;4.57;;
55811;SDS011;41742;52.048;6.092;2022-11-20T02:16:08;6.50;;;4.07;;
55811;SDS011;41742;52.048;6.092;2022-11-20T02:18:53;8.07;;;4.30;;
55811;SDS011;41742;52.048;6.092;2022-11-20T02:21:40;6.50;;;4.13;;
55811;SDS011;41742;52.048;6.092;2022-11-20T02:24:16;6.90;;;4.57;;
55811;SDS011;41742;52.048;6.092;2022-11-20T02:26:46;7.03;;;4.30;;
55811;SDS011;41742;52.048;6.092;2022-11-20T02:29:37;6.35;;;3.78;;
55811;SDS011;41742;52.048;6.092;2022-11-20T02:32:21;11.07;;;3.97;;
55811;SDS011;41742;52.048;6.092;2022-11-20T02:34:49;6.85;;;4.15;;
55811;SDS011;41742;52.048;6.092;2022-11-20T02:37:15;6.95;;;4.55;;
55811;SDS011;41742;52.048;6.092;2022-11-20T02:39:41;7.38;;;4.57;;
55811;SDS011;41742;52.048;6.092;2022-11-20T02:42:08;6.82;;;4.32;;
55811;SDS011;41742;52.048;6.092;2022-11-20T02:44:33;6.18;;;3.63;;
55811;SDS011;41742;52.048;6.092;2022-11-20T02:46:59;7.78;;;4.35;;
55811;SDS011;41742;52.048;6.092;2022-11-20T02:49:25;6.25;;;4.28;;
55811;SDS011;41742;52.048;6.092;2022-11-20T02:51:50;8.70;;;4.57;;
55811;SDS011;41742;52.048;6.092;2022-11-20T02:54:16;13.07;;;5.10;;
55811;SDS011;41742;52.048;6.092;2022-11-20T02:56:42;15.65;;;4.88;;
55811;SDS011;41742;52.048;6.092;2022-11-20T02:59:08;10.20;;;4.57;;
55811;SDS011;41742;52.048;6.092;2022-11-20T03:01:35;7.53;;;4.28;;
55811;SDS011;41742;52.048;6.092;2022-11-20T03:04:00;6.97;;;4.20;;
55811;SDS011;41742;52.048;6.092;2022-11-20T03:06:26;5.47;;;4.15;;
55811;SDS011;41742;52.048;6.092;2022-11-20T03:08:52;7.35;;;3.95;;
55811;SDS011;41742;52.048;6.092;2022-11-20T03:11:18;8.88;;;4.60;;
55811;SDS011;41742;52.048;6.092;2022-11-20T03:13:43;6.50;;;4.05;;
55811;SDS011;41742;52.048;6.092;2022-11-20T03:16:10;8.20;;;4.03;;
55811;SDS011;41742;52.048;6.092;2022-11-20T03:18:37;10.90;;;4.47;;
55811;SDS011;41742;52.048;6.092;2022-11-20T03:21:04;6.97;;;4.57;;
55811;SDS011;41742;52.048;6.092;2022-11-20T03:23:30;8.25;;;4.50;;
55811;SDS011;41742;52.048;6.092;2022-11-20T03:26:06;10.10;;;4.78;;
55811;SDS011;41742;52.048;6.092;2022-11-20T03:28:41;6.80;;;4.27;;
55811;SDS011;41742;52.048;6.092;2022-11-20T03:31:11;4.90;;;3.85;;
55811;SDS011;41742;52.048;6.092;2022-11-20T03:33:39;7.60;;;4.30;;
55811;SDS011;41742;52.048;6.092;2022-11-20T03:36:07;6.78;;;4.25;;
55811;SDS011;41742;52.048;6.092;2022-11-20T03:38:34;5.88;;;4.13;;
55811;SDS011;41742;52.048;6.092;2022-11-20T03:41:01;8.00;;;4.65;;
55811;SDS011;41742;52.048;6.092;2022-11-20T03:43:31;7.97;;;4.45;;
55811;SDS011;41742;52.048;6.092;2022-11-20T03:45:57;6.95;;;4.43;;
55811;SDS011;41742;52.048;6.092;2022-11-20T03:48:23;7.68;;;4.40;;
55811;SDS011;41742;52.048;6.092;2022-11-20T03:50:50;10.32;;;4.72;;
55811;SDS011;41742;52.048;6.092;2022-11-20T03:53:16;6.63;;;4.60;;
55811;SDS011;41742;52.048;6.092;2022-11-20T03:55:41;8.68;;;4.88;;
55811;SDS011;41742;52.048;6.092;2022-11-20T03:58:07;8.27;;;4.35;;
55811;SDS011;41742;52.048;6.092;2022-11-20T04:00:33;7.25;;;4.55;;
55811;SDS011;41742;52.048;6.092;2022-11-20T04:02:59;7.10;;;4.03;;
55811;SDS011;41742;52.048;6.092;2022-11-20T04:05:26;8.82;;;4.60;;
55811;SDS011;41742;52.048;6.092;2022-11-20T04:07:51;6.85;;;3.90;;
55811;SDS011;41742;52.048;6.092;2022-11-20T04:10:17;5.68;;;4.03;;
55811;SDS011;41742;52.048;6.092;2022-11-20T04:12:42;7.35;;;4.30;;
55811;SDS011;41742;52.048;6.092;2022-11-20T04:15:08;9.30;;;4.45;;
55811;SDS011;41742;52.048;6.092;2022-11-20T04:17:34;8.82;;;4.43;;
55811;SDS011;41742;52.048;6.092;2022-11-20T04:20:00;7.28;;;4.22;;
55811;SDS011;41742;52.048;6.092;2022-11-20T04:22:25;10.65;;;4.07;;
55811;SDS011;41742;52.048;6.092;2022-11-20T04:24:51;7.00;;;4.43;;
55811;SDS011;41742;52.048;6.092;2022-11-20T04:27:16;6.68;;;4.40;;
55811;SDS011;41742;52.048;6.092;2022-11-20T04:29:42;8.48;;;4.47;;
55811;SDS011;41742;52.048;6.092;2022-11-20T04:32:08;7.10;;;4.45;;
55811;SDS011;41742;52.048;6.092;2022-11-20T04:34:34;7.20;;;4.50;;
55811;SDS011;41742;52.048;6.092;2022-11-20T04:37:00;9.48;;;4.35;;
55811;SDS011;41742;52.048;6.092;2022-11-20T04:39:25;7.72;;;4.65;;
55811;SDS011;41742;52.048;6.092;2022-11-20T04:41:51;7.05;;;4.30;;
55811;SDS011;41742;52.048;6.092;2022-11-20T04:47:01;5.30;;;3.90;;
55811;SDS011;41742;52.048;6.092;2022-11-20T04:49:27;7.05;;;4.32;;
55811;SDS011;41742;52.048;6.092;2022-11-20T04:51:53;6.13;;;3.72;;
55811;SDS011;41742;52.048;6.092;2022-11-20T04:54:18;6.55;;;3.90;;
55811;SDS011;41742;52.048;6.092;2022-11-20T04:56:47;7.90;;;4.25;;
55811;SDS011;41742;52.048;6.092;2022-11-20T04:59:13;9.75;;;3.95;;
55811;SDS011;41742;52.048;6.092;2022-11-20T05:01:38;7.93;;;3.97;;
55811;SDS011;41742;52.048;6.092;2022-11-20T05:04:04;8.05;;;4.72;;
55811;SDS011;41742;52.048;6.092;2022-11-20T05:06:31;6.13;;;3.85;;
55811;SDS011;41742;52.048;6.092;2022-11-20T05:08:57;6.95;;;4.18;;
55811;SDS011;41742;52.048;6.092;2022-11-20T05:11:23;8.15;;;4.03;;
55811;SDS011;41742;52.048;6.092;2022-11-20T05:13:49;7.38;;;4.10;;
55811;SDS011;41742;52.048;6.092;2022-11-20T05:16:20;7.60;;;4.50;;
55811;SDS011;41742;52.048;6.092;2022-11-20T05:18:47;6.90;;;4.43;;
55811;SDS011;41742;52.048;6.092;2022-11-20T05:21:13;6.95;;;4.20;;
55811;SDS011;41742;52.048;6.092;2022-11-20T05:23:40;7.47;;;4.53;;
55811;SDS011;41742;52.048;6.092;2022-11-20T05:26:07;9.82;;;5.00;;
55811;SDS011;41742;52.048;6.092;2022-11-20T05:28:36;7.72;;;4.15;;
55811;SDS011;41742;52.048;6.092;2022-11-20T05:31:09;6.85;;;4.35;;
55811;SDS011;41742;52.048;6.092;2022-11-20T05:33:39;8.52;;;4.18;;
55811;SDS011;41742;52.048;6.092;2022-11-20T05:36:06;6.40;;;4.40;;
55811;SDS011;41742;52.048;6.092;2022-11-20T05:38:32;8.65;;;4.43;;
55811;SDS011;41742;52.048;6.092;2022-11-20T05:41:05;6.88;;;4.50;;
55811;SDS011;41742;52.048;6.092;2022-11-20T05:43:32;7.28;;;4.97;;
55811;SDS011;41742;52.048;6.092;2022-11-20T05:45:59;8.27;;;4.70;;
55811;SDS011;41742;52.048;6.092;2022-11-20T05:48:25;8.20;;;4.47;;
55811;SDS011;41742;52.048;6.092;2022-11-20T05:50:51;7.22;;;4.47;;
55811;SDS011;41742;52.048;6.092;2022-11-20T05:53:17;8.18;;;4.07;;
55811;SDS011;41742;52.048;6.092;2022-11-20T05:55:42;5.65;;;3.90;;
55811;SDS011;41742;52.048;6.092;2022-11-20T05:58:08;5.90;;;3.72;;
55811;SDS011;41742;52.048;6.092;2022-11-20T06:00:33;6.72;;;3.83;;
55811;SDS011;41742;52.048;6.092;2022-11-20T06:02:59;8.85;;;4.68;;
55811;SDS011;41742;52.048;6.092;2022-11-20T06:05:24;8.60;;;4.80;;
55811;SDS011;41742;52.048;6.092;2022-11-20T06:07:50;7.70;;;4.25;;
55811;SDS011;41742;52.048;6.092;2022-11-20T06:10:15;7.50;;;4.40;;
55811;SDS011;41742;52.048;6.092;2022-11-20T06:12:41;7.97;;;4.40;;
55811;SDS011;41742;52.048;6.092;2022-11-20T06:15:07;6.65;;;4.28;;
55811;SDS011;41742;52.048;6.092;2022-11-20T06:17:33;7.15;;;4.63;;
55811;SDS011;41742;52.048;6.092;2022-11-20T06:19:59;7.22;;;4.32;;
55811;SDS011;41742;52.048;6.092;2022-11-20T06:22:24;9.60;;;4.85;;
55811;SDS011;41742;52.048;6.092;2022-11-20T06:24:50;10.70;;;4.90;;
55811;SDS011;41742;52.048;6.092;2022-11-20T06:27:16;9.38;;;4.63;;
55811;SDS011;41742;52.048;6.092;2022-11-20T06:29:41;6.20;;;4.07;;
55811;SDS011;41742;52.048;6.092;2022-11-20T06:32:07;8.35;;;4.85;;
55811;SDS011;41742;52.048;6.092;2022-11-20T06:34:33;6.05;;;4.57;;
55811;SDS011;41742;52.048;6.092;2022-11-20T06:36:58;8.00;;;4.97;;
55811;SDS011;41742;52.048;6.092;2022-11-20T06:39:24;7.70;;;4.95;;
55811;SDS011;41742;52.048;6.092;2022-11-20T06:41:49;10.52;;;4.80;;
55811;SDS011;41742;52.048;6.092;2022-11-20T06:44:15;9.82;;;4.95;;
55811;SDS011;41742;52.048;6.092;2022-11-20T06:46:40;6.85;;;4.65;;
55811;SDS011;41742;52.048;6.092;2022-11-20T06:49:06;8.77;;;4.85;;
55811;SDS011;41742;52.048;6.092;2022-11-20T06:51:32;9.65;;;4.78;;
55811;SDS011;41742;52.048;6.092;2022-11-20T06:53:57;7.38;;;4.70;;
55811;SDS011;41742;52.048;6.092;2022-11-20T06:56:23;9.05;;;4.45;;
55811;SDS011;41742;52.048;6.092;2022-11-20T06:58:48;7.25;;;4.30;;
55811;SDS011;41742;52.048;6.092;2022-11-20T07:01:14;6.05;;;4.30;;
55811;SDS011;41742;52.048;6.092;2022-11-20T07:03:40;12.13;;;4.57;;
55811;SDS011;41742;52.048;6.092;2022-11-20T07:06:06;7.25;;;4.32;;
55811;SDS011;41742;52.048;6.092;2022-11-20T07:08:32;9.85;;;5.07;;
55811;SDS011;41742;52.048;6.092;2022-11-20T07:10:59;12.00;;;5.10;;
55811;SDS011;41742;52.048;6.092;2022-11-20T07:13:26;5.97;;;3.95;;
55811;SDS011;41742;52.048;6.092;2022-11-20T07:15:53;6.95;;;4.57;;
55811;SDS011;41742;52.048;6.092;2022-11-20T07:18:19;7.05;;;4.75;;
55811;SDS011;41742;52.048;6.092;2022-11-20T07:20:45;12.80;;;4.85;;
55811;SDS011;41742;52.048;6.092;2022-11-20T07:23:10;6.60;;;4.32;;
55811;SDS011;41742;52.048;6.092;2022-11-20T07:25:36;6.40;;;3.60;;
55811;SDS011;41742;52.048;6.092;2022-11-20T07:28:02;6.93;;;4.53;;
55811;SDS011;41742;52.048;6.092;2022-11-20T07:30:28;6.65;;;4.95;;
55811;SDS011;41742;52.048;6.092;2022-11-20T07:32:54;8.15;;;4.60;;
55811;SDS011;41742;52.048;6.092;2022-11-20T07:35:21;7.55;;;4.75;;
55811;SDS011;41742;52.048;6.092;2022-11-20T07:37:47;7.05;;;4.53;;
55811;SDS011;41742;52.048;6.092;2022-11-20T07:40:14;8.88;;;4.95;;
55811;SDS011;41742;52.048;6.092;2022-11-20T07:42:47;10.23;;;4.90;;
55811;SDS011;41742;52.048;6.092;2022-11-20T07:45:16;6.95;;;4.82;;
55811;SDS011;41742;52.048;6.092;2022-11-20T07:47:46;8.73;;;4.93;;
55811;SDS011;41742;52.048;6.092;2022-11-20T07:50:12;9.40;;;4.40;;
55811;SDS011;41742;52.048;6.092;2022-11-20T07:52:38;7.32;;;4.97;;
55811;SDS011;41742;52.048;6.092;2022-11-20T07:55:04;8.48;;;5.03;;
55811;SDS011;41742;52.048;6.092;2022-11-20T07:57:30;11.13;;;4.15;;
55811;SDS011;41742;52.048;6.092;2022-11-20T07:59:56;9.73;;;4.95;;
55811;SDS011;41742;52.048;6.092;2022-11-20T08:02:21;9.38;;;4.57;;
55811;SDS011;41742;52.048;6.092;2022-11-20T08:04:47;11.25;;;5.30;;
55811;SDS011;41742;52.048;6.092;2022-11-20T08:07:13;7.70;;;4.95;;
55811;SDS011;41742;52.048;6.092;2022-11-20T08:09:38;8.98;;;5.30;;
55811;SDS011;41742;52.048;6.092;2022-11-20T08:12:04;10.13;;;5.10;;
55811;SDS011;41742;52.048;6.092;2022-11-20T08:14:49;8.85;;;5.00;;
55811;SDS011;41742;52.048;6.092;2022-11-20T08:17:14;7.65;;;4.00;;
55811;SDS011;41742;52.048;6.092;2022-11-20T08:19:40;6.88;;;4.80;;
55811;SDS011;41742;52.048;6.092;2022-11-20T08:22:05;8.63;;;5.22;;
55811;SDS011;41742;52.048;6.092;2022-11-20T08:24:31;9.73;;;4.93;;
55811;SDS011;41742;52.048;6.092;2022-11-20T08:26:57;10.00;;;4.82;;
55811;SDS011;41742;52.048;6.092;2022-11-20T08:29:24;6.97;;;4.43;;
55811;SDS011;41742;52.048;6.092;2022-11-20T08:31:51;8.07;;;4.72;;
55811;SDS011;41742;52.048;6.092;2022-11-20T08:34:16;8.68;;;5.30;;
55811;SDS011;41742;52.048;6.092;2022-11-20T08:36:42;7.13;;;4.55;;
55811;SDS011;41742;52.048;6.092;2022-11-20T08:39:08;8.48;;;4.90;;
55811;SDS011;41742;52.048;6.092;2022-11-20T08:41:37;19.05;;;11.40;;
55811;SDS011;41742;52.048;6.092;2022-11-20T08:44:03;20.90;;;14.43;;
55811;SDS011;41742;52.048;6.092;2022-11-20T08:46:34;23.70;;;11.73;;
55811;SDS011;41742;52.048;6.092;2022-11-20T08:49:03;14.02;;;9.13;;
55811;SDS011;41742;52.048;6.092;2022-11-20T08:51:31;15.45;;;8.82;;
55811;SDS011;41742;52.048;6.092;2022-11-20T08:53:57;10.77;;;5.47;;
55811;SDS011;41742;52.048;6.092;2022-11-20T08:56:23;11.75;;;5.97;;
55811;SDS011;41742;52.048;6.092;2022-11-20T08:58:49;9.80;;;6.97;;
55811;SDS011;41742;52.048;6.092;2022-11-20T09:01:19;17.80;;;6.63;;
55811;SDS011;41742;52.048;6.092;2022-11-20T09:03:46;10.43;;;6.28;;
55811;SDS011;41742;52.048;6.092;2022-11-20T09:06:12;8.05;;;5.35;;
55811;SDS011;41742;52.048;6.092;2022-11-20T09:08:38;7.78;;;5.68;;
55811;SDS011;41742;52.048;6.092;2022-11-20T09:11:03;10.77;;;6.03;;
55811;SDS011;41742;52.048;6.092;2022-11-20T09:13:29;8.80;;;6.07;;
55811;SDS011;41742;52.048;6.092;2022-11-20T09:16:00;12.02;;;6.65;;
55811;SDS011;41742;52.048;6.092;2022-11-20T09:18:27;13.75;;;7.13;;
55811;SDS011;41742;52.048;6.092;2022-11-20T09:21:00;9.75;;;5.95;;
55811;SDS011;41742;52.048;6.092;2022-11-20T09:23:27;13.10;;;6.93;;
55811;SDS011;41742;52.048;6.092;2022-11-20T09:25:57;13.90;;;6.53;;
55811;SDS011;41742;52.048;6.092;2022-11-20T09:38:55;12.88;;;7.18;;
55811;SDS011;41742;52.048;6.092;2022-11-20T09:44:18;15.85;;;8.40;;
55811;SDS011;41742;52.048;6.092;2022-11-20T09:47:28;17.45;;;8.80;;
55811;SDS011;41742;52.048;6.092;2022-11-20T09:53:00;14.82;;;9.00;;
55811;SDS011;41742;52.048;6.092;2022-11-20T09:55:35;20.65;;;9.95;;
55811;SDS011;41742;52.048;6.092;2022-11-20T09:58:02;15.75;;;9.32;;
55811;SDS011;41742;52.048;6.092;2022-11-20T10:00:31;18.55;;;10.00;;
55811;SDS011;41742;52.048;6.092;2022-11-20T10:03:01;17.20;;;9.90;;
55811;SDS011;41742;52.048;6.092;2022-11-20T10:05:43;19.33;;;9.45;;
55811;SDS011;41742;52.048;6.092;2022-11-20T10:08:16;15.88;;;9.57;;
55811;SDS011;41742;52.048;6.092;2022-11-20T10:10:54;17.48;;;8.82;;
55811;SDS011;41742;52.048;6.092;2022-11-20T10:13:45;13.13;;;8.18;;
55811;SDS011;41742;52.048;6.092;2022-11-20T10:16:47;19.17;;;9.35;;
55811;SDS011;41742;52.048;6.092;2022-11-20T10:19:36;15.23;;;8.57;;
55811;SDS011;41742;52.048;6.092;2022-11-20T10:22:28;19.25;;;9.20;;
55811;SDS011;41742;52.048;6.092;2022-11-20T10:25:14;12.57;;;8.57;;
55811;SDS011;41742;52.048;6.092;2022-11-20T10:30:29;16.20;;;8.80;;
55811;SDS011;41742;52.048;6.092;2022-11-20T10:33:03;18.63;;;9.77;;
55811;SDS011;41742;52.048;6.092;2022-11-20T10:35:35;15.90;;;8.93;;
55811;SDS011;41742;52.048;6.092;2022-11-20T10:38:15;17.92;;;9.98;;
55811;SDS011;41742;52.048;6.092;2022-11-20T10:40:48;16.60;;;9.07;;
55811;SDS011;41742;52.048;6.092;2022-11-20T10:45:58;21.27;;;11.20;;
55811;SDS011;41742;52.048;6.092;2022-11-20T10:48:28;18.88;;;10.35;;
55811;SDS011;41742;52.048;6.092;2022-11-20T10:51:10;19.67;;;10.98;;
55811;SDS011;41742;52.048;6.092;2022-11-20T10:56:41;20.75;;;10.05;;
55811;SDS011;41742;52.048;6.092;2022-11-20T11:01:56;23.10;;;11.65;;
55811;SDS011;41742;52.048;6.092;2022-11-20T11:04:26;21.85;;;10.23;;
55811;SDS011;41742;52.048;6.092;2022-11-20T11:06:58;15.70;;;9.80;;
55811;SDS011;41742;52.048;6.092;2022-11-20T11:09:37;17.90;;;9.27;;
55811;SDS011;41742;52.048;6.092;2022-11-20T11:12:08;18.77;;;9.55;;
55811;SDS011;41742;52.048;6.092;2022-11-20T11:14:50;19.13;;;8.57;;
55811;SDS011;41742;52.048;6.092;2022-11-20T11:17:19;17.88;;;9.35;;
55811;SDS011;41742;52.048;6.092;2022-11-20T11:20:06;15.20;;;9.15;;
55811;SDS011;41742;52.048;6.092;2022-11-20T11:22:45;13.55;;;8.70;;
55811;SDS011;41742;52.048;6.092;2022-11-20T11:27:47;15.25;;;8.68;;
55811;SDS011;41742;52.048;6.092;2022-11-20T11:30:14;12.63;;;7.82;;
55811;SDS011;41742;52.048;6.092;2022-11-20T11:32:42;14.43;;;8.18;;
55811;SDS011;41742;52.048;6.092;2022-11-20T11:35:27;15.63;;;8.57;;
55811;SDS011;41742;52.048;6.092;2022-11-20T11:37:54;17.00;;;8.40;;
55811;SDS011;41742;52.048;6.092;2022-11-20T11:40:28;12.60;;;7.85;;
55811;SDS011;41742;52.048;6.092;2022-11-20T11:42:58;17.67;;;9.57;;
55811;SDS011;41742;52.048;6.092;2022-11-20T11:45:27;17.58;;;8.93;;
55811;SDS011;41742;52.048;6.092;2022-11-20T11:47:54;15.23;;;8.18;;
55811;SDS011;41742;52.048;6.092;2022-11-20T11:50:23;23.98;;;8.80;;
55811;SDS011;41742;52.048;6.092;2022-11-20T11:52:58;15.98;;;9.45;;
55811;SDS011;41742;52.048;6.092;2022-11-20T11:55:36;17.92;;;9.88;;
55811;SDS011;41742;52.048;6.092;2022-11-20T12:03:44;13.40;;;8.80;;
55811;SDS011;41742;52.048;6.092;2022-11-20T12:06:34;19.88;;;10.05;;
55811;SDS011;41742;52.048;6.092;2022-11-20T12:09:04;16.55;;;9.55;;
55811;SDS011;41742;52.048;6.092;2022-11-20T12:14:19;17.70;;;8.32;;
55811;SDS011;41742;52.048;6.092;2022-11-20T12:16:51;20.70;;;9.68;;
55811;SDS011;41742;52.048;6.092;2022-11-20T12:19:18;19.25;;;10.07;;
55811;SDS011;41742;52.048;6.092;2022-11-20T12:30:04;19.55;;;11.23;;
55811;SDS011;41742;52.048;6.092;2022-11-20T12:41:12;15.30;;;8.75;;
55811;SDS011;41742;52.048;6.092;2022-11-20T12:50:01;12.27;;;8.02;;
55811;SDS011;41742;52.048;6.092;2022-11-20T12:58:27;18.08;;;9.40;;
55811;SDS011;41742;52.048;6.092;2022-11-20T13:01:02;21.20;;;7.95;;
55811;SDS011;41742;52.048;6.092;2022-11-20T13:07:15;12.38;;;7.38;;
55811;SDS011;41742;52.048;6.092;2022-11-20T13:09:45;14.50;;;8.00;;
55811;SDS011;41742;52.048;6.092;2022-11-20T13:12:23;13.77;;;7.88;;
55811;SDS011;41742;52.048;6.092;2022-11-20T13:17:45;10.80;;;6.75;;
55811;SDS011;41742;52.048;6.092;2022-11-20T13:20:18;12.57;;;7.72;;
55811;SDS011;41742;52.048;6.092;2022-11-20T13:22:49;11.20;;;7.47;;
55811;SDS011;41742;52.048;6.092;2022-11-20T13:27:51;13.60;;;8.07;;
55811;SDS011;41742;52.048;6.092;2022-11-20T13:30:18;16.13;;;8.45;;
55811;SDS011;41742;52.048;6.092;2022-11-20T13:32:54;11.88;;;7.25;;
55811;SDS011;41742;52.048;6.092;2022-11-20T13:35:26;13.02;;;8.35;;
55811;SDS011;41742;52.048;6.092;2022-11-20T13:38:05;18.00;;;8.15;;
55811;SDS011;41742;52.048;6.092;2022-11-20T13:40:34;14.60;;;7.95;;
55811;SDS011;41742;52.048;6.092;2022-11-20T13:45:54;14.88;;;9.10;;
55811;SDS011;41742;52.048;6.092;2022-11-20T13:48:24;16.13;;;9.10;;
55811;SDS011;41742;52.048;6.092;2022-11-20T13:53:51;14.43;;;9.18;;
55811;SDS011;41742;52.048;6.092;2022-11-20T13:56:21;19.17;;;10.13;;
55811;SDS011;41742;52.048;6.092;2022-11-20T14:01:44;19.40;;;10.48;;
55811;SDS011;41742;52.048;6.092;2022-11-20T14:04:14;14.90;;;8.60;;
55811;SDS011;41742;52.048;6.092;2022-11-20T14:06:44;17.50;;;9.23;;
55811;SDS011;41742;52.048;6.092;2022-11-20T14:09:12;18.63;;;9.60;;
55811;SDS011;41742;52.048;6.092;2022-11-20T14:11:49;17.65;;;8.45;;
55811;SDS011;41742;52.048;6.092;2022-11-20T14:14:19;17.17;;;9.48;;
55811;SDS011;41742;52.048;6.092;2022-11-20T14:16:46;16.48;;;8.95;;
55811;SDS011;41742;52.048;6.092;2022-11-20T14:21:44;16.13;;;9.90;;
55811;SDS011;41742;52.048;6.092;2022-11-20T14:24:18;15.82;;;8.27;;
55811;SDS011;41742;52.048;6.092;2022-11-20T14:26:48;17.58;;;9.52;;
55811;SDS011;41742;52.048;6.092;2022-11-20T14:29:15;15.32;;;8.73;;
55811;SDS011;41742;52.048;6.092;2022-11-20T14:32:02;18.75;;;10.65;;
55811;SDS011;41742;52.048;6.092;2022-11-20T14:34:29;13.73;;;8.07;;
55811;SDS011;41742;52.048;6.092;2022-11-20T14:36:58;18.00;;;8.73;;
55811;SDS011;41742;52.048;6.092;2022-11-20T14:39:35;18.48;;;8.88;;
55811;SDS011;41742;52.048;6.092;2022-11-20T14:42:03;23.42;;;9.38;;
55811;SDS011;41742;52.048;6.092;2022-11-20T14:44:38;18.17;;;9.02;;
55811;SDS011;41742;52.048;6.092;2022-11-20T14:47:04;16.60;;;7.93;;
55811;SDS011;41742;52.048;6.092;2022-11-20T14:49:30;19.80;;;9.77;;
55811;SDS011;41742;52.048;6.092;2022-11-20T14:52:01;19.45;;;9.77;;
55811;SDS011;41742;52.048;6.092;2022-11-20T14:54:34;17.67;;;8.70;;
55811;SDS011;41742;52.048;6.092;2022-11-20T14:57:18;18.55;;;9.82;;
55811;SDS011;41742;52.048;6.092;2022-11-20T15:00:18;20.42;;;10.10;;
55811;SDS011;41742;52.048;6.092;2022-11-20T15:02:47;19.23;;;8.80;;
55811;SDS011;41742;52.048;6.092;2022-11-20T15:05:15;19.83;;;10.13;;
55811;SDS011;41742;52.048;6.092;2022-11-20T15:07:44;13.63;;;8.93;;
55811;SDS011;41742;52.048;6.092;2022-11-20T15:10:13;18.63;;;9.25;;
55811;SDS011;41742;52.048;6.092;2022-11-20T15:12:47;18.33;;;9.65;;
55811;SDS011;41742;52.048;6.092;2022-11-20T15:18:12;19.17;;;10.35;;
55811;SDS011;41742;52.048;6.092;2022-11-20T15:20:40;18.05;;;10.52;;
55811;SDS011;41742;52.048;6.092;2022-11-20T15:23:14;19.02;;;10.88;;
55811;SDS011;41742;52.048;6.092;2022-11-20T15:25:43;18.75;;;9.85;;
55811;SDS011;41742;52.048;6.092;2022-11-20T15:28:31;25.20;;;10.95;;
55811;SDS011;41742;52.048;6.092;2022-11-20T15:30:59;23.83;;;11.18;;
55811;SDS011;41742;52.048;6.092;2022-11-20T15:33:25;18.73;;;11.05;;
55811;SDS011;41742;52.048;6.092;2022-11-20T15:35:50;18.48;;;10.68;;
55811;SDS011;41742;52.048;6.092;2022-11-20T15:38:16;19.13;;;9.88;;
55811;SDS011;41742;52.048;6.092;2022-11-20T15:40:42;20.77;;;10.15;;
55811;SDS011;41742;52.048;6.092;2022-11-20T15:43:07;19.27;;;10.85;;
55811;SDS011;41742;52.048;6.092;2022-11-20T15:45:34;25.75;;;11.40;;
55811;SDS011;41742;52.048;6.092;2022-11-20T15:48:19;24.35;;;11.60;;
55811;SDS011;41742;52.048;6.092;2022-11-20T15:50:52;26.25;;;12.68;;
55811;SDS011;41742;52.048;6.092;2022-11-20T15:53:19;20.98;;;11.48;;
55811;SDS011;41742;52.048;6.092;2022-11-20T15:55:45;24.98;;;12.13;;
55811;SDS011;41742;52.048;6.092;2022-11-20T15:58:11;29.38;;;12.07;;
55811;SDS011;41742;52.048;6.092;2022-11-20T16:00:36;16.17;;;10.65;;
55811;SDS011;41742;52.048;6.092;2022-11-20T16:03:02;18.58;;;10.07;;
55811;SDS011;41742;52.048;6.092;2022-11-20T16:05:28;18.80;;;11.20;;
55811;SDS011;41742;52.048;6.092;2022-11-20T16:07:54;23.17;;;11.27;;
55811;SDS011;41742;52.048;6.092;2022-11-20T16:10:19;22.73;;;10.73;;
55811;SDS011;41742;52.048;6.092;2022-11-20T16:12:45;19.40;;;10.70;;
55811;SDS011;41742;52.048;6.092;2022-11-20T16:15:29;20.35;;;10.85;;
55811;SDS011;41742;52.048;6.092;2022-11-20T16:18:11;15.75;;;9.80;;
55811;SDS011;41742;52.048;6.092;2022-11-20T16:20:42;21.90;;;10.57;;
55811;SDS011;41742;52.048;6.092;2022-11-20T16:23:08;20.67;;;10.70;;
55811;SDS011;41742;52.048;6.092;2022-11-20T16:25:34;18.30;;;10.07;;
55811;SDS011;41742;52.048;6.092;2022-11-20T16:27:59;18.10;;;10.50;;
55811;SDS011;41742;52.048;6.092;2022-11-20T16:30:25;22.90;;;10.43;;
55811;SDS011;41742;52.048;6.092;2022-11-20T16:32:52;16.70;;;10.00;;
55811;SDS011;41742;52.048;6.092;2022-11-20T16:35:17;20.42;;;10.63;;